createdAt,value
2018-12-04T00:00:14.048Z,92.60
2018-12-04T00:00:52.114Z,92.70
2018-12-04T00:01:30.151Z,92.60
2018-12-04T00:02:09.127Z,92.50
2018-12-04T00:02:47.975Z,92.60
2018-12-04T00:03:25.906Z,92.60
2018-12-04T00:04:04.375Z,92.60
2018-12-04T00:04:43.271Z,92.60
2018-12-04T00:05:21.244Z,92.60
2018-12-04T00:05:59.106Z,92.60
2018-12-04T00:06:37.130Z,92.70
2018-12-04T00:07:15.129Z,92.70
2018-12-04T00:07:53.429Z,92.70
2018-12-04T00:08:31.705Z,92.70
2018-12-04T00:09:10.721Z,92.80
2018-12-04T00:09:48.721Z,92.80
2018-12-04T00:10:26.668Z,92.80
2018-12-04T00:11:04.610Z,92.80
2018-12-04T00:11:42.603Z,92.80
2018-12-04T00:12:20.798Z,92.80
2018-12-04T00:13:01.281Z,92.80
2018-12-04T00:13:39.252Z,92.80
2018-12-04T00:14:18.320Z,92.80
2018-12-04T00:14:56.837Z,92.80
2018-12-04T00:15:34.681Z,92.80
2018-12-04T00:16:12.619Z,92.80
2018-12-04T00:16:51.921Z,92.80
2018-12-04T00:17:29.869Z,92.90
2018-12-04T00:18:07.788Z,92.90
2018-12-04T00:18:45.936Z,92.90
2018-12-04T00:19:23.873Z,92.90
2018-12-04T00:20:01.862Z,93.00
2018-12-04T00:20:40.728Z,92.90
2018-12-04T00:21:20.150Z,93.00
2018-12-04T00:21:58.301Z,92.90
2018-12-04T00:22:36.367Z,92.90
2018-12-04T00:23:14.348Z,92.90
2018-12-04T00:23:52.420Z,92.90
2018-12-04T00:24:31.327Z,93.00
2018-12-04T00:25:11.622Z,92.90
2018-12-04T00:25:50.107Z,92.90
2018-12-04T00:26:28.204Z,92.90
2018-12-04T00:27:07.167Z,93.20
2018-12-04T00:27:45.187Z,93.00
2018-12-04T00:28:24.075Z,93.00
2018-12-04T00:29:01.952Z,93.00
2018-12-04T00:29:41.039Z,93.00
2018-12-04T00:30:20.014Z,93.00
2018-12-04T00:30:58.018Z,93.00
2018-12-04T00:31:35.956Z,93.00
2018-12-04T00:32:14.473Z,93.00
2018-12-04T00:32:53.536Z,93.10
2018-12-04T00:33:31.432Z,93.00
2018-12-04T00:34:09.653Z,93.00
2018-12-04T00:34:50.653Z,93.00
2018-12-04T00:35:28.630Z,93.10
2018-12-04T00:36:06.709Z,93.00
2018-12-04T00:36:44.582Z,93.10
2018-12-04T00:37:22.618Z,93.10
2018-12-04T00:38:00.609Z,93.10
2018-12-04T00:38:39.640Z,93.10
2018-12-04T00:39:18.597Z,93.10
2018-12-04T00:39:57.430Z,93.10
2018-12-04T00:40:36.058Z,93.10
2018-12-04T00:41:14.159Z,93.10
2018-12-04T00:41:52.133Z,93.10
2018-12-04T00:42:30.219Z,93.10
2018-12-04T00:43:09.979Z,93.10
2018-12-04T00:43:47.797Z,93.10
2018-12-04T00:44:26.845Z,93.10
2018-12-04T00:45:04.953Z,93.10
2018-12-04T00:45:42.959Z,93.00
2018-12-04T00:46:20.853Z,92.90
2018-12-04T00:47:06.420Z,92.90
2018-12-04T00:47:45.932Z,92.70
2018-12-04T00:48:23.904Z,92.70
2018-12-04T00:49:01.978Z,92.60
2018-12-04T00:49:39.925Z,92.60
2018-12-04T00:50:17.812Z,92.50
2018-12-04T00:50:55.828Z,92.50
2018-12-04T00:51:36.085Z,92.50
2018-12-04T00:52:15.004Z,92.50
2018-12-04T00:52:52.924Z,92.50
2018-12-04T00:53:31.821Z,92.50
2018-12-04T00:54:09.832Z,92.50
2018-12-04T00:54:47.811Z,92.50
2018-12-04T00:55:26.903Z,92.50
2018-12-04T00:56:06.138Z,92.50
2018-12-04T00:56:43.987Z,92.60
2018-12-04T00:57:22.003Z,92.60
2018-12-04T00:58:00.021Z,92.60
2018-12-04T00:58:38.524Z,92.70
2018-12-04T00:59:16.531Z,92.70
2018-12-04T00:59:56.547Z,92.70
2018-12-04T01:00:35.803Z,92.70
2018-12-04T01:01:13.741Z,92.70
2018-12-04T01:01:53.653Z,92.70
2018-12-04T01:02:31.599Z,92.70
2018-12-04T01:03:08.476Z,92.70
2018-12-04T01:03:46.634Z,92.70
2018-12-04T01:04:26.151Z,92.60
2018-12-04T01:05:04.305Z,92.60
2018-12-04T01:05:42.229Z,92.60
2018-12-04T01:06:20.210Z,92.60
2018-12-04T01:06:58.029Z,92.60
2018-12-04T01:07:36.232Z,92.60
2018-12-04T01:08:14.621Z,92.70
2018-12-04T01:08:53.859Z,92.60
2018-12-04T01:09:31.915Z,92.70
2018-12-04T01:10:10.419Z,92.70
2018-12-04T01:10:48.343Z,92.70
2018-12-04T01:11:27.411Z,92.80
2018-12-04T01:12:06.416Z,92.80
2018-12-04T01:12:44.414Z,92.80
2018-12-04T01:13:25.018Z,92.80
2018-12-04T01:14:02.897Z,92.90
2018-12-04T01:14:40.965Z,92.90
2018-12-04T01:15:19.101Z,92.80
2018-12-04T01:15:57.078Z,92.80
2018-12-04T01:16:35.014Z,92.80
2018-12-04T01:17:13.201Z,92.70
2018-12-04T01:17:51.551Z,92.60
2018-12-04T01:18:30.130Z,92.60
2018-12-04T01:19:08.006Z,92.40
2018-12-04T01:19:46.025Z,92.40
2018-12-04T01:20:24.111Z,92.30
2018-12-04T01:21:03.168Z,92.30
2018-12-04T01:21:42.274Z,92.30
2018-12-04T01:22:21.716Z,92.30
2018-12-04T01:22:59.803Z,92.30
2018-12-04T01:23:38.551Z,92.30
2018-12-04T01:24:16.525Z,92.30
2018-12-04T01:24:54.471Z,92.30
2018-12-04T01:25:32.319Z,92.30
2018-12-04T01:26:12.193Z,92.30
2018-12-04T01:26:50.146Z,92.10
2018-12-04T01:27:28.039Z,92.10
2018-12-04T01:28:05.960Z,92.00
2018-12-04T01:28:43.856Z,92.00
2018-12-04T01:29:21.756Z,91.90
2018-12-04T01:30:00.927Z,91.90
2018-12-04T01:30:40.276Z,91.90
2018-12-04T01:31:19.283Z,92.00
2018-12-04T01:32:53.176Z,91.90
2018-12-04T01:33:31.199Z,91.80
2018-12-04T01:34:10.076Z,91.80
2018-12-04T01:34:48.083Z,91.70
2018-12-04T01:35:26.116Z,91.60
2018-12-04T01:36:03.930Z,91.50
2018-12-04T01:36:42.331Z,91.40
2018-12-04T01:37:21.633Z,91.30
2018-12-04T01:37:59.603Z,91.10
2018-12-04T01:38:37.544Z,91.00
2018-12-04T01:39:15.527Z,90.80
2018-12-04T01:39:53.582Z,90.80
2018-12-04T01:40:31.764Z,90.80
2018-12-04T01:41:12.032Z,90.70
2018-12-04T01:41:52.562Z,90.70
2018-12-04T01:42:30.581Z,90.70
2018-12-04T01:43:08.623Z,90.70
2018-12-04T01:43:46.659Z,90.70
2018-12-04T01:44:25.396Z,90.70
2018-12-04T01:45:04.015Z,90.70
2018-12-04T01:45:45.046Z,90.70
2018-12-04T01:46:23.110Z,90.60
2018-12-04T01:47:01.071Z,90.60
2018-12-04T01:47:39.088Z,90.60
2018-12-04T01:48:17.170Z,90.60
2018-12-04T01:48:55.228Z,90.60
2018-12-04T01:49:33.244Z,90.60
2018-12-04T01:50:12.996Z,90.60
2018-12-04T01:50:52.586Z,90.70
2018-12-04T01:51:33.706Z,90.80
2018-12-04T01:52:12.470Z,90.80
2018-12-04T01:52:51.259Z,90.80
2018-12-04T01:53:29.442Z,90.80
2018-12-04T01:54:09.257Z,90.90
2018-12-04T01:54:48.526Z,90.90
2018-12-04T01:55:28.018Z,90.90
2018-12-04T01:56:08.160Z,90.90
2018-12-04T01:56:46.917Z,90.90
2018-12-04T01:57:25.748Z,90.90
2018-12-04T01:58:04.546Z,90.90
2018-12-04T01:58:43.774Z,91.10
2018-12-04T01:59:23.665Z,90.80
2018-12-04T02:00:02.240Z,90.80
2018-12-04T02:00:41.203Z,90.80
2018-12-04T02:01:20.996Z,90.80
2018-12-04T02:01:59.803Z,90.80
2018-12-04T02:02:38.465Z,90.70
2018-12-04T02:03:19.683Z,90.60
2018-12-04T02:03:59.094Z,90.30
2018-12-04T02:04:37.753Z,90.30
2018-12-04T02:05:16.483Z,90.20
2018-12-04T02:05:56.444Z,90.30
2018-12-04T02:06:34.410Z,90.30
2018-12-04T02:07:14.518Z,90.40
2018-12-04T02:07:54.053Z,90.40
2018-12-04T02:08:32.072Z,90.40
2018-12-04T02:09:11.259Z,90.50
2018-12-04T02:09:49.345Z,90.50
2018-12-04T02:10:28.271Z,90.50
2018-12-04T02:11:06.989Z,90.50
2018-12-04T02:11:45.285Z,90.40
2018-12-04T02:12:23.383Z,90.40
2018-12-04T02:13:01.445Z,90.20
2018-12-04T02:13:39.486Z,90.10
2018-12-04T02:14:18.344Z,90.00
2018-12-04T02:14:56.435Z,89.70
2018-12-04T02:15:34.341Z,89.40
2018-12-04T02:16:13.053Z,90.00
2018-12-04T02:16:51.098Z,89.80
2018-12-04T02:17:29.124Z,88.90
2018-12-04T02:18:07.084Z,88.80
2018-12-04T02:18:45.106Z,88.70
2018-12-04T02:19:24.029Z,88.60
2018-12-04T02:20:02.511Z,88.50
2018-12-04T02:20:40.866Z,88.50
2018-12-04T02:21:19.718Z,88.50
2018-12-04T02:21:57.785Z,88.60
2018-12-04T02:22:35.907Z,88.70
2018-12-04T02:23:13.976Z,88.70
2018-12-04T02:23:52.055Z,88.60
2018-12-04T02:24:31.956Z,88.70
2018-12-04T02:25:11.576Z,88.60
2018-12-04T02:25:50.577Z,88.50
2018-12-04T02:26:28.611Z,88.50
2018-12-04T02:27:06.668Z,88.50
2018-12-04T02:27:44.664Z,88.50
2018-12-04T02:28:24.825Z,88.60
2018-12-04T02:29:03.275Z,88.60
2018-12-04T02:29:41.684Z,88.60
2018-12-04T02:30:20.800Z,88.60
2018-12-04T02:30:58.836Z,88.60
2018-12-04T02:31:36.894Z,88.80
2018-12-04T02:32:15.432Z,88.70
2018-12-04T02:32:53.481Z,88.70
2018-12-04T02:33:32.838Z,89.20
2018-12-04T02:34:11.355Z,88.30
2018-12-04T02:34:49.371Z,88.30
2018-12-04T02:35:27.366Z,88.20
2018-12-04T02:36:06.075Z,88.20
2018-12-04T02:36:44.019Z,88.10
2018-12-04T02:37:22.026Z,88.10
2018-12-04T02:38:01.271Z,88.00
2018-12-04T02:38:39.311Z,87.90
2018-12-04T02:39:18.706Z,87.80
2018-12-04T02:39:57.562Z,87.40
2018-12-04T02:40:35.764Z,86.80
2018-12-04T02:41:13.895Z,86.40
2018-12-04T02:41:51.899Z,86.00
2018-12-04T02:42:30.268Z,85.90
2018-12-04T02:43:08.349Z,85.40
2018-12-04T02:43:46.444Z,85.30
2018-12-04T02:44:24.477Z,85.30
2018-12-04T02:45:02.435Z,85.30
2018-12-04T02:45:40.462Z,85.20
2018-12-04T02:46:18.722Z,85.10
2018-12-04T02:46:57.208Z,85.20
2018-12-04T02:47:35.169Z,85.20
2018-12-04T02:48:15.260Z,85.00
2018-12-04T02:48:53.265Z,85.10
2018-12-04T02:49:32.373Z,85.00
2018-12-04T02:50:10.946Z,85.00
2018-12-04T02:50:49.314Z,85.00
2018-12-04T02:51:27.305Z,85.00
2018-12-04T02:52:06.164Z,85.00
2018-12-04T02:52:44.070Z,85.00
2018-12-04T02:53:21.992Z,84.90
2018-12-04T02:54:01.010Z,85.10
2018-12-04T02:54:39.674Z,85.30
2018-12-04T02:55:18.011Z,85.20
2018-12-04T02:55:57.224Z,85.20
2018-12-04T02:56:35.371Z,85.20
2018-12-04T02:57:14.285Z,85.30
2018-12-04T02:57:52.357Z,85.30
2018-12-04T02:58:31.580Z,85.10
2018-12-04T02:59:10.729Z,84.70
2018-12-04T02:59:53.071Z,84.50
2018-12-04T03:00:31.318Z,84.30
2018-12-04T03:01:10.271Z,83.90
2018-12-04T03:01:48.265Z,83.80
2018-12-04T03:02:26.220Z,83.70
2018-12-04T03:03:04.312Z,83.60
2018-12-04T03:03:43.365Z,83.70
2018-12-04T03:04:21.414Z,83.50
2018-12-04T03:05:00.649Z,83.20
2018-12-04T03:05:38.689Z,83.20
2018-12-04T03:06:16.765Z,83.40
2018-12-04T03:06:54.796Z,83.40
2018-12-04T03:07:32.853Z,83.50
2018-12-04T03:08:12.133Z,83.70
2018-12-04T03:08:50.122Z,83.90
2018-12-04T03:09:28.144Z,84.00
2018-12-04T03:10:07.590Z,84.30
2018-12-04T03:10:45.545Z,84.30
2018-12-04T03:11:23.564Z,84.30
2018-12-04T03:12:01.609Z,84.40
2018-12-04T03:12:39.904Z,84.30
2018-12-04T03:13:19.356Z,84.40
2018-12-04T03:13:57.331Z,84.60
2018-12-04T03:14:35.178Z,84.60
2018-12-04T03:15:13.646Z,84.60
2018-12-04T03:15:51.620Z,84.90
2018-12-04T03:16:29.575Z,84.90
2018-12-04T03:17:09.969Z,84.90
2018-12-04T03:17:47.909Z,85.00
2018-12-04T03:18:26.591Z,85.30
2018-12-04T03:19:04.594Z,85.30
2018-12-04T03:19:42.590Z,85.30
2018-12-04T03:20:20.577Z,85.40
2018-12-04T03:20:58.626Z,85.50
2018-12-04T03:21:36.763Z,85.50
2018-12-04T03:22:14.706Z,85.90
2018-12-04T03:22:52.849Z,85.80
2018-12-04T03:23:30.816Z,85.50
2018-12-04T03:24:09.377Z,85.50
2018-12-04T03:24:47.497Z,85.60
2018-12-04T03:25:26.049Z,85.80
2018-12-04T03:26:04.012Z,86.10
2018-12-04T03:26:41.911Z,86.30
2018-12-04T03:27:19.949Z,86.30
2018-12-04T03:27:59.659Z,86.40
2018-12-04T03:28:37.648Z,86.40
2018-12-04T03:29:15.535Z,86.30
2018-12-04T03:29:54.822Z,86.40
2018-12-04T03:30:32.739Z,86.40
2018-12-04T03:31:10.755Z,86.50
2018-12-04T03:31:50.459Z,86.50
2018-12-04T03:32:28.543Z,86.60
2018-12-04T03:33:07.424Z,86.60
2018-12-04T03:33:45.478Z,86.50
2018-12-04T03:34:23.679Z,86.50
2018-12-04T03:35:01.616Z,86.60
2018-12-04T03:35:39.573Z,86.50
2018-12-04T03:36:18.485Z,86.30
2018-12-04T03:36:56.580Z,86.30
2018-12-04T03:37:35.671Z,86.30
2018-12-04T03:38:14.411Z,86.20
2018-12-04T03:38:53.390Z,86.70
2018-12-04T03:39:32.518Z,86.60
2018-12-04T03:40:13.267Z,86.50
2018-12-04T03:40:51.244Z,86.20
2018-12-04T03:41:29.213Z,85.90
2018-12-04T03:42:07.107Z,85.80
2018-12-04T03:42:45.843Z,85.70
2018-12-04T03:43:23.960Z,85.40
2018-12-04T03:44:01.968Z,85.00
2018-12-04T03:44:39.987Z,84.90
2018-12-04T03:45:17.906Z,85.00
2018-12-04T03:45:55.928Z,85.00
2018-12-04T03:46:35.361Z,85.00
2018-12-04T03:47:14.364Z,85.00
2018-12-04T03:47:52.431Z,85.20
2018-12-04T03:48:30.411Z,85.10
2018-12-04T03:49:08.401Z,85.40
2018-12-04T03:49:46.368Z,85.40
2018-12-04T03:50:24.463Z,85.40
2018-12-04T03:51:02.318Z,85.40
2018-12-04T03:51:41.745Z,85.20
2018-12-04T03:52:19.752Z,85.30
2018-12-04T03:52:57.683Z,85.30
2018-12-04T03:53:35.670Z,85.10
2018-12-04T03:54:14.313Z,84.90
2018-12-04T03:54:52.747Z,84.80
2018-12-04T03:55:30.698Z,84.70
2018-12-04T03:56:11.558Z,84.60
2018-12-04T03:56:50.312Z,84.80
2018-12-04T03:57:28.217Z,84.80
2018-12-04T03:58:06.144Z,84.90
2018-12-04T03:58:44.031Z,85.10
2018-12-04T03:59:22.933Z,85.10
2018-12-04T04:00:01.560Z,85.10
2018-12-04T04:00:39.616Z,85.20
2018-12-04T04:01:18.495Z,85.20
2018-12-04T04:01:56.559Z,85.50
2018-12-04T04:02:34.428Z,85.50
2018-12-04T04:03:12.383Z,85.60
2018-12-04T04:03:50.363Z,85.80
2018-12-04T04:04:30.314Z,85.70
2018-12-04T04:05:08.358Z,85.50
2018-12-04T04:05:46.346Z,85.70
2018-12-04T04:06:24.385Z,85.60
2018-12-04T04:07:02.404Z,85.50
2018-12-04T04:07:40.380Z,85.50
2018-12-04T04:08:18.262Z,85.40
2018-12-04T04:08:57.349Z,85.60
2018-12-04T04:09:35.331Z,85.60
2018-12-04T04:10:14.007Z,85.40
2018-12-04T04:10:52.178Z,85.00
2018-12-04T04:11:30.078Z,84.90
2018-12-04T04:12:08.141Z,84.80
2018-12-04T04:12:46.180Z,84.70
2018-12-04T04:13:26.419Z,84.60
2018-12-04T04:14:05.350Z,84.70
2018-12-04T04:14:43.229Z,84.60
2018-12-04T04:15:21.283Z,84.20
2018-12-04T04:15:59.320Z,83.90
2018-12-04T04:16:37.336Z,84.40
2018-12-04T04:17:15.344Z,83.40
2018-12-04T04:17:53.338Z,83.30
2018-12-04T04:18:31.402Z,83.20
2018-12-04T04:19:09.408Z,83.30
2018-12-04T04:19:47.368Z,83.60
2018-12-04T04:20:25.423Z,83.60
2018-12-04T04:21:03.418Z,83.60
2018-12-04T04:21:41.579Z,83.60
2018-12-04T04:22:19.588Z,83.80
2018-12-04T04:22:57.620Z,83.80
2018-12-04T04:23:35.709Z,83.70
2018-12-04T04:24:14.611Z,83.70
2018-12-04T04:24:52.601Z,83.60
2018-12-04T04:25:31.577Z,83.60
2018-12-04T04:26:10.841Z,83.70
2018-12-04T04:26:48.998Z,83.90
2018-12-04T04:27:26.878Z,83.80
2018-12-04T04:28:04.719Z,84.10
2018-12-04T04:28:42.816Z,83.90
2018-12-04T04:29:20.821Z,83.60
2018-12-04T04:29:58.791Z,83.90
2018-12-04T04:30:38.177Z,84.00
2018-12-04T04:31:16.107Z,84.00
2018-12-04T04:31:54.038Z,83.90
2018-12-04T04:32:45.930Z,84.00
2018-12-04T04:33:23.962Z,84.10
2018-12-04T04:34:01.891Z,84.30
2018-12-04T04:34:42.079Z,84.30
2018-12-04T04:35:20.089Z,84.30
2018-12-04T04:36:00.297Z,84.50
2018-12-04T04:36:38.421Z,84.30
2018-12-04T04:37:17.609Z,84.30
2018-12-04T04:37:56.352Z,84.30
2018-12-04T04:38:34.332Z,84.90
2018-12-04T04:39:14.677Z,84.00
2018-12-04T04:39:52.607Z,84.00
2018-12-04T04:40:30.573Z,84.00
2018-12-04T04:41:08.646Z,84.10
2018-12-04T04:41:46.552Z,83.90
2018-12-04T04:42:24.539Z,83.80
2018-12-04T04:43:02.514Z,83.80
2018-12-04T04:43:40.814Z,83.80
2018-12-04T04:44:18.763Z,83.90
2018-12-04T04:44:56.724Z,84.10
2018-12-04T04:45:34.579Z,84.00
2018-12-04T04:46:12.420Z,84.20
2018-12-04T04:46:50.420Z,84.10
2018-12-04T04:47:28.954Z,84.40
2018-12-04T04:48:07.977Z,84.00
2018-12-04T04:48:46.100Z,83.40
2018-12-04T04:49:24.221Z,82.60
2018-12-04T04:50:02.275Z,82.60
2018-12-04T04:50:40.315Z,82.60
2018-12-04T04:51:18.192Z,82.80
2018-12-04T04:51:56.286Z,82.40
2018-12-04T04:52:34.311Z,82.50
2018-12-04T04:53:12.252Z,82.60
2018-12-04T04:53:50.231Z,82.80
2018-12-04T04:54:28.077Z,82.90
2018-12-04T04:55:06.595Z,83.00
2018-12-04T04:55:44.633Z,82.40
2018-12-04T04:56:22.580Z,82.20
2018-12-04T04:57:00.405Z,82.50
2018-12-04T04:57:38.501Z,82.60
2018-12-04T04:58:16.448Z,82.80
2018-12-04T04:58:54.746Z,82.70
2018-12-04T04:59:32.720Z,82.70
2018-12-04T05:00:10.794Z,82.70
2018-12-04T05:00:53.304Z,82.70
2018-12-04T05:01:31.227Z,82.80
2018-12-04T05:02:09.237Z,82.80
2018-12-04T05:02:47.244Z,82.80
2018-12-04T05:03:25.360Z,82.70
2018-12-04T05:04:03.306Z,82.90
2018-12-04T05:04:41.175Z,82.70
2018-12-04T05:05:19.972Z,82.50
2018-12-04T05:05:57.936Z,83.40
2018-12-04T05:06:35.909Z,82.50
2018-12-04T05:07:14.012Z,82.60
2018-12-04T05:07:53.106Z,82.60
2018-12-04T05:08:30.998Z,82.50
2018-12-04T05:09:14.317Z,82.40
2018-12-04T05:09:52.357Z,82.70
2018-12-04T05:10:31.101Z,82.30
2018-12-04T05:11:09.992Z,82.50
2018-12-04T05:11:49.156Z,82.50
2018-12-04T05:12:27.183Z,82.50
2018-12-04T05:13:06.147Z,82.50
2018-12-04T05:13:44.784Z,82.70
2018-12-04T05:14:22.677Z,82.60
2018-12-04T05:15:00.752Z,82.40
2018-12-04T05:15:38.857Z,82.50
2018-12-04T05:16:16.816Z,82.40
2018-12-04T05:16:56.858Z,82.40
2018-12-04T05:17:34.708Z,82.30
2018-12-04T05:18:13.662Z,82.40
2018-12-04T05:18:51.957Z,82.30
2018-12-04T05:19:29.884Z,82.40
2018-12-04T05:20:09.636Z,82.40
2018-12-04T05:20:48.705Z,82.40
2018-12-04T05:21:26.705Z,81.90
2018-12-04T05:22:04.817Z,81.40
2018-12-04T05:22:43.730Z,81.40
2018-12-04T05:23:21.768Z,81.30
2018-12-04T05:24:00.500Z,81.50
2018-12-04T05:24:38.501Z,81.60
2018-12-04T05:25:16.394Z,81.30
2018-12-04T05:25:54.413Z,81.10
2018-12-04T05:26:34.220Z,79.20
2018-12-04T05:27:13.449Z,79.20
2018-12-04T05:27:51.698Z,78.00
2018-12-04T05:28:29.561Z,77.60
2018-12-04T05:29:07.484Z,77.80
2018-12-04T05:29:45.371Z,77.00
2018-12-04T05:30:23.353Z,77.60
2018-12-04T05:31:03.388Z,77.50
2018-12-04T05:31:41.521Z,77.10
2018-12-04T05:32:19.588Z,77.20
2018-12-04T05:32:58.526Z,76.50
2018-12-04T05:33:36.505Z,76.30
2018-12-04T05:34:14.469Z,77.20
2018-12-04T05:34:52.537Z,77.10
2018-12-04T05:35:30.686Z,77.00
2018-12-04T05:36:09.656Z,77.10
2018-12-04T05:36:47.561Z,77.00
2018-12-04T05:37:25.509Z,77.10
2018-12-04T05:38:03.425Z,77.50
2018-12-04T05:38:41.388Z,78.40
2018-12-04T05:39:19.498Z,78.00
2018-12-04T05:39:57.903Z,77.40
2018-12-04T05:40:36.577Z,76.50
2018-12-04T05:41:15.480Z,76.80
2018-12-04T05:41:53.701Z,76.70
2018-12-04T05:42:31.761Z,76.50
2018-12-04T05:43:09.779Z,76.80
2018-12-04T05:43:47.615Z,76.60
2018-12-04T05:44:25.913Z,76.60
2018-12-04T05:45:03.816Z,77.20
2018-12-04T05:45:41.851Z,77.10
2018-12-04T05:46:19.819Z,76.90
2018-12-04T05:46:57.813Z,77.10
2018-12-04T05:47:35.872Z,76.80
2018-12-04T05:48:15.795Z,77.40
2018-12-04T05:48:53.663Z,76.90
2018-12-04T05:49:31.564Z,77.10
2018-12-04T05:50:10.762Z,76.70
2018-12-04T05:50:49.509Z,76.50
2018-12-04T05:51:27.547Z,76.70
2018-12-04T05:52:05.424Z,75.90
2018-12-04T05:52:43.664Z,75.50
2018-12-04T05:53:30.650Z,75.50
2018-12-04T05:54:10.897Z,75.70
2018-12-04T05:54:48.842Z,75.60
2018-12-04T05:55:26.844Z,75.90
2018-12-04T05:56:04.710Z,76.00
2018-12-04T05:56:42.910Z,76.30
2018-12-04T05:57:22.271Z,76.30
2018-12-04T05:58:00.309Z,76.00
2018-12-04T05:58:38.091Z,76.10
2018-12-04T05:59:16.356Z,76.00
2018-12-04T05:59:54.487Z,75.50
2018-12-04T06:00:32.508Z,74.70
2018-12-04T06:01:11.725Z,74.40
2018-12-04T06:01:52.327Z,74.80
2018-12-04T06:02:31.115Z,74.60
2018-12-04T06:03:09.058Z,74.10
2018-12-04T06:03:47.862Z,74.20
2018-12-04T06:04:25.802Z,73.90
2018-12-04T06:05:03.791Z,73.80
2018-12-04T06:05:43.427Z,74.00
2018-12-04T06:06:21.459Z,74.20
2018-12-04T06:06:59.506Z,74.50
2018-12-04T06:07:37.562Z,74.70
2018-12-04T06:08:15.440Z,74.50
2018-12-04T06:08:53.418Z,74.50
2018-12-04T06:09:31.366Z,74.70
2018-12-04T06:10:12.556Z,74.70
2018-12-04T06:10:50.525Z,74.70
2018-12-04T06:11:28.368Z,74.50
2018-12-04T06:12:06.751Z,74.80
2018-12-04T06:12:45.002Z,74.90
2018-12-04T06:13:22.990Z,75.20
2018-12-04T06:14:00.955Z,75.40
2018-12-04T06:14:40.919Z,75.50
2018-12-04T06:15:18.893Z,75.70
2018-12-04T06:15:56.951Z,75.70
2018-12-04T06:16:34.909Z,75.90
2018-12-04T06:17:12.799Z,75.90
2018-12-04T06:17:50.781Z,76.10
2018-12-04T06:18:28.695Z,76.40
2018-12-04T06:19:06.680Z,76.60
2018-12-04T06:19:44.622Z,76.40
2018-12-04T06:20:22.692Z,76.50
2018-12-04T06:21:00.929Z,76.60
2018-12-04T06:21:38.792Z,76.60
2018-12-04T06:22:16.803Z,76.90
2018-12-04T06:22:56.453Z,76.90
2018-12-04T06:23:34.499Z,76.90
2018-12-04T06:24:12.488Z,77.10
2018-12-04T06:24:50.457Z,77.10
2018-12-04T06:25:31.239Z,77.20
2018-12-04T06:26:09.199Z,77.40
2018-12-04T06:26:48.181Z,77.40
2018-12-04T06:27:26.507Z,77.40
2018-12-04T06:28:04.455Z,77.50
2018-12-04T06:28:42.328Z,77.90
2018-12-04T06:29:20.312Z,77.80
2018-12-04T06:29:58.295Z,77.80
2018-12-04T06:30:36.359Z,77.60
2018-12-04T06:31:14.333Z,77.40
2018-12-04T06:31:54.091Z,77.20
2018-12-04T06:32:32.080Z,77.00
2018-12-04T06:33:10.066Z,76.90
2018-12-04T06:33:48.839Z,76.90
2018-12-04T06:34:26.662Z,76.90
2018-12-04T06:35:04.636Z,76.90
2018-12-04T06:35:42.593Z,77.00
2018-12-04T06:36:22.089Z,77.00
2018-12-04T06:37:00.135Z,77.20
2018-12-04T06:37:38.033Z,77.30
2018-12-04T06:38:16.034Z,77.50
2018-12-04T06:38:53.991Z,77.40
2018-12-04T06:39:32.007Z,77.50
2018-12-04T06:40:11.312Z,77.50
2018-12-04T06:40:49.364Z,77.50
2018-12-04T06:41:27.248Z,77.60
2018-12-04T06:42:05.190Z,77.50
2018-12-04T06:42:43.063Z,77.70
2018-12-04T06:43:21.092Z,77.70
2018-12-04T06:43:59.321Z,77.80
2018-12-04T06:44:37.957Z,77.90
2018-12-04T06:45:17.196Z,78.10
2018-12-04T06:45:56.167Z,79.00
2018-12-04T06:46:35.288Z,79.20
2018-12-04T06:47:14.418Z,79.10
2018-12-04T06:47:52.221Z,79.00
2018-12-04T06:48:30.152Z,78.80
2018-12-04T06:49:09.391Z,78.90
2018-12-04T06:49:48.092Z,78.90
2018-12-04T06:50:26.072Z,78.90
2018-12-04T06:51:05.003Z,79.00
2018-12-04T06:51:43.043Z,78.90
2018-12-04T06:52:21.165Z,79.10
2018-12-04T06:53:00.249Z,79.20
2018-12-04T06:53:39.198Z,79.20
2018-12-04T06:54:17.207Z,79.40
2018-12-04T06:54:57.890Z,78.90
2018-12-04T06:55:35.755Z,78.90
2018-12-04T06:56:14.508Z,78.70
2018-12-04T06:56:52.688Z,78.50
2018-12-04T06:57:32.101Z,78.60
2018-12-04T06:58:10.315Z,78.20
2018-12-04T06:58:48.228Z,78.30
2018-12-04T06:59:26.283Z,78.40
2018-12-04T07:00:05.354Z,78.50
2018-12-04T07:00:43.305Z,78.50
2018-12-04T07:01:24.206Z,78.50
2018-12-04T07:02:03.805Z,78.50
2018-12-04T07:02:41.722Z,78.20
2018-12-04T07:03:19.795Z,78.20
2018-12-04T07:03:58.666Z,78.10
2018-12-04T07:04:36.597Z,78.10
2018-12-04T07:05:15.599Z,77.90
2018-12-04T07:05:57.249Z,78.70
2018-12-04T07:06:36.556Z,77.80
2018-12-04T07:07:14.394Z,77.50
2018-12-04T07:07:53.204Z,77.60
2018-12-04T07:08:31.115Z,77.50
2018-12-04T07:09:11.038Z,77.60
2018-12-04T07:09:49.880Z,77.80
2018-12-04T07:10:29.500Z,77.70
2018-12-04T07:11:11.693Z,77.80
2018-12-04T07:11:49.683Z,77.90
2018-12-04T07:12:27.661Z,77.80
2018-12-04T07:13:05.755Z,78.10
2018-12-04T07:13:43.794Z,78.30
2018-12-04T07:14:21.800Z,78.40
2018-12-04T07:15:03.254Z,78.30
2018-12-04T07:15:41.299Z,78.50
2018-12-04T07:16:19.290Z,78.40
2018-12-04T07:16:57.292Z,78.50
2018-12-04T07:17:35.302Z,78.50
2018-12-04T07:18:14.136Z,78.30
2018-12-04T07:18:52.070Z,78.30
2018-12-04T07:19:30.254Z,78.10
2018-12-04T07:20:09.730Z,78.10
2018-12-04T07:20:49.604Z,78.10
2018-12-04T07:21:28.084Z,77.90
2018-12-04T07:22:06.006Z,77.30
2018-12-04T07:22:44.238Z,77.50
2018-12-04T07:23:22.108Z,77.50
2018-12-04T07:24:00.460Z,77.30
2018-12-04T07:24:38.451Z,77.10
2018-12-04T07:25:16.505Z,77.30
2018-12-04T07:25:54.423Z,77.50
2018-12-04T07:26:32.395Z,77.50
2018-12-04T07:27:10.299Z,77.40
2018-12-04T07:27:49.679Z,77.20
2018-12-04T07:28:30.473Z,77.00
2018-12-04T07:29:08.522Z,77.00
2018-12-04T07:29:46.364Z,77.20
2018-12-04T07:30:24.325Z,77.30
2018-12-04T07:31:02.238Z,77.40
2018-12-04T07:31:40.276Z,76.90
2018-12-04T07:32:20.538Z,76.60
2018-12-04T07:32:58.456Z,76.70
2018-12-04T07:33:36.518Z,76.60
2018-12-04T07:34:14.402Z,76.40
2018-12-04T07:34:52.314Z,76.40
2018-12-04T07:35:30.140Z,76.50
2018-12-04T07:36:09.038Z,76.40
2018-12-04T07:36:48.780Z,76.40
2018-12-04T07:37:26.699Z,76.20
2018-12-04T07:38:05.584Z,75.40
2018-12-04T07:38:43.487Z,75.50
2018-12-04T07:39:21.474Z,75.40
2018-12-04T07:40:00.159Z,75.60
2018-12-04T07:40:38.289Z,75.40
2018-12-04T07:41:18.736Z,75.70
2018-12-04T07:41:56.715Z,75.30
2018-12-04T07:42:34.628Z,75.00
2018-12-04T07:43:12.604Z,74.80
2018-12-04T07:43:50.622Z,74.80
2018-12-04T07:44:28.661Z,74.30
2018-12-04T07:45:12.669Z,74.30
2018-12-04T07:45:51.844Z,74.40
2018-12-04T07:46:30.395Z,74.90
2018-12-04T07:47:09.363Z,75.00
2018-12-04T07:47:47.221Z,75.20
2018-12-04T07:48:25.149Z,75.20
2018-12-04T07:49:04.099Z,75.40
2018-12-04T07:49:42.959Z,75.50
2018-12-04T07:50:20.847Z,75.50
2018-12-04T07:50:59.479Z,75.60
2018-12-04T07:51:37.445Z,75.70
2018-12-04T07:52:15.314Z,75.80
2018-12-04T07:52:53.201Z,75.80
2018-12-04T07:53:31.204Z,75.90
2018-12-04T07:54:09.449Z,76.00
2018-12-04T07:54:48.393Z,76.00
2018-12-04T07:55:27.518Z,76.10
2018-12-04T07:56:06.273Z,76.10
2018-12-04T07:56:44.199Z,76.20
2018-12-04T07:57:22.214Z,76.50
2018-12-04T07:58:00.180Z,76.40
2018-12-04T07:58:39.492Z,76.60
2018-12-04T07:59:17.898Z,76.60
2018-12-04T07:59:55.948Z,76.60
2018-12-04T08:00:33.991Z,77.00
2018-12-04T08:01:11.880Z,77.00
2018-12-04T08:01:49.765Z,77.00
2018-12-04T08:02:27.676Z,77.00
2018-12-04T08:03:06.089Z,77.00
2018-12-04T08:03:44.035Z,77.00
2018-12-04T08:04:22.886Z,77.00
2018-12-04T08:05:00.827Z,77.10
2018-12-04T08:05:38.781Z,77.10
2018-12-04T08:06:16.660Z,77.10
2018-12-04T08:06:57.983Z,77.20
2018-12-04T08:07:37.602Z,77.20
2018-12-04T08:08:15.494Z,77.50
2018-12-04T08:08:53.425Z,77.50
2018-12-04T08:09:31.374Z,77.60
2018-12-04T08:10:10.006Z,77.50
2018-12-04T08:10:48.034Z,77.80
2018-12-04T08:11:27.509Z,78.10
2018-12-04T08:12:06.525Z,78.10
2018-12-04T08:12:44.498Z,78.00
2018-12-04T08:13:22.449Z,77.80
2018-12-04T08:14:00.476Z,77.90
2018-12-04T08:14:38.390Z,77.70
2018-12-04T08:15:16.200Z,77.40
2018-12-04T08:15:54.440Z,77.20
2018-12-04T08:16:32.379Z,77.30